sensor_id;sensor_type;location;lat;lon;timestamp;temperature;humidity
8105;DHT22;4095;48.942;9.104;2023-11-22T00:01:58;9.30;99.90
8105;DHT22;4095;48.942;9.104;2023-11-22T00:04:23;9.30;99.90
8105;DHT22;4095;48.942;9.104;2023-11-22T00:06:49;9.30;99.90
8105;DHT22;4095;48.942;9.104;2023-11-22T00:09:14;9.30;99.90
8105;DHT22;4095;48.942;9.104;2023-11-22T00:11:40;9.30;99.90
8105;DHT22;4095;48.942;9.104;2023-11-22T00:14:06;9.30;99.90
8105;DHT22;4095;48.942;9.104;2023-11-22T00:16:32;9.30;99.90
8105;DHT22;4095;48.942;9.104;2023-11-22T00:18:57;9.20;99.90
8105;DHT22;4095;48.942;9.104;2023-11-22T00:21:23;9.20;99.90
8105;DHT22;4095;48.942;9.104;2023-11-22T00:23:48;9.20;99.90
8105;DHT22;4095;48.942;9.104;2023-11-22T00:26:14;9.20;99.90
8105;DHT22;4095;48.942;9.104;2023-11-22T00:28:40;9.00;99.90
8105;DHT22;4095;48.942;9.104;2023-11-22T00:31:06;9.00;99.90
8105;DHT22;4095;48.942;9.104;2023-11-22T00:33:32;9.00;99.90
8105;DHT22;4095;48.942;9.104;2023-11-22T00:35:58;8.90;99.90
8105;DHT22;4095;48.942;9.104;2023-11-22T00:38:24;8.90;99.90
8105;DHT22;4095;48.942;9.104;2023-11-22T00:40:50;8.90;99.90
8105;DHT22;4095;48.942;9.104;2023-11-22T00:43:15;8.80;99.90
8105;DHT22;4095;48.942;9.104;2023-11-22T00:45:41;8.80;99.90
8105;DHT22;4095;48.942;9.104;2023-11-22T00:48:07;8.80;99.90
8105;DHT22;4095;48.942;9.104;2023-11-22T00:50:32;8.80;99.90
8105;DHT22;4095;48.942;9.104;2023-11-22T00:52:58;8.90;99.90
8105;DHT22;4095;48.942;9.104;2023-11-22T00:55:24;8.80;99.90
8105;DHT22;4095;48.942;9.104;2023-11-22T00:57:49;8.70;99.90
8105;DHT22;4095;48.942;9.104;2023-11-22T01:00:15;8.70;99.90
8105;DHT22;4095;48.942;9.104;2023-11-22T01:02:41;8.60;99.90
8105;DHT22;4095;48.942;9.104;2023-11-22T01:05:08;8.60;99.90
8105;DHT22;4095;48.942;9.104;2023-11-22T01:07:37;8.60;99.90
8105;DHT22;4095;48.942;9.104;2023-11-22T01:10:03;8.60;99.90
8105;DHT22;4095;48.942;9.104;2023-11-22T01:12:31;8.60;99.90
8105;DHT22;4095;48.942;9.104;2023-11-22T01:14:56;8.60;99.90
8105;DHT22;4095;48.942;9.104;2023-11-22T01:17:22;8.60;99.90
8105;DHT22;4095;48.942;9.104;2023-11-22T01:19:49;8.60;99.90
8105;DHT22;4095;48.942;9.104;2023-11-22T01:22:16;8.60;99.90
8105;DHT22;4095;48.942;9.104;2023-11-22T01:24:42;8.60;99.90
8105;DHT22;4095;48.942;9.104;2023-11-22T01:27:08;8.60;99.90
8105;DHT22;4095;48.942;9.104;2023-11-22T01:29:34;8.60;99.90
8105;DHT22;4095;48.942;9.104;2023-11-22T01:32:00;8.70;99.90
8105;DHT22;4095;48.942;9.104;2023-11-22T01:34:26;8.60;99.90
8105;DHT22;4095;48.942;9.104;2023-11-22T01:36:52;8.60;99.90
8105;DHT22;4095;48.942;9.104;2023-11-22T01:39:17;8.60;99.90
8105;DHT22;4095;48.942;9.104;2023-11-22T01:41:46;8.60;99.90
8105;DHT22;4095;48.942;9.104;2023-11-22T01:44:15;8.50;99.90
8105;DHT22;4095;48.942;9.104;2023-11-22T01:46:42;8.50;99.90
8105;DHT22;4095;48.942;9.104;2023-11-22T01:49:09;8.50;99.90
8105;DHT22;4095;48.942;9.104;2023-11-22T01:51:35;8.50;99.90
8105;DHT22;4095;48.942;9.104;2023-11-22T01:54:01;8.50;99.90
8105;DHT22;4095;48.942;9.104;2023-11-22T01:56:27;8.40;99.90
8105;DHT22;4095;48.942;9.104;2023-11-22T01:58:55;8.40;99.90
8105;DHT22;4095;48.942;9.104;2023-11-22T02:01:22;8.40;99.90
8105;DHT22;4095;48.942;9.104;2023-11-22T02:03:47;8.30;99.90
8105;DHT22;4095;48.942;9.104;2023-11-22T02:06:16;8.30;99.90
8105;DHT22;4095;48.942;9.104;2023-11-22T02:08:44;8.30;99.90
8105;DHT22;4095;48.942;9.104;2023-11-22T02:11:10;8.20;99.90
8105;DHT22;4095;48.942;9.104;2023-11-22T02:13:36;8.20;99.90
8105;DHT22;4095;48.942;9.104;2023-11-22T02:16:02;8.20;99.90
8105;DHT22;4095;48.942;9.104;2023-11-22T02:18:29;8.20;99.90
8105;DHT22;4095;48.942;9.104;2023-11-22T02:20:54;8.20;99.90
8105;DHT22;4095;48.942;9.104;2023-11-22T02:23:20;8.20;99.90
8105;DHT22;4095;48.942;9.104;2023-11-22T02:25:46;8.10;99.90
8105;DHT22;4095;48.942;9.104;2023-11-22T02:28:12;8.10;99.90
8105;DHT22;4095;48.942;9.104;2023-11-22T02:30:40;8.10;99.90
8105;DHT22;4095;48.942;9.104;2023-11-22T02:33:07;8.10;99.90
8105;DHT22;4095;48.942;9.104;2023-11-22T02:35:32;8.00;99.90
8105;DHT22;4095;48.942;9.104;2023-11-22T02:37:59;8.00;99.90
8105;DHT22;4095;48.942;9.104;2023-11-22T02:40:25;8.00;99.90
8105;DHT22;4095;48.942;9.104;2023-11-22T02:42:52;7.90;99.90
8105;DHT22;4095;48.942;9.104;2023-11-22T02:45:20;7.90;99.90
8105;DHT22;4095;48.942;9.104;2023-11-22T02:47:49;7.90;99.90
8105;DHT22;4095;48.942;9.104;2023-11-22T02:50:15;7.90;99.90
8105;DHT22;4095;48.942;9.104;2023-11-22T02:52:41;7.90;99.90
8105;DHT22;4095;48.942;9.104;2023-11-22T02:55:08;7.90;99.90
8105;DHT22;4095;48.942;9.104;2023-11-22T02:57:37;7.90;99.90
8105;DHT22;4095;48.942;9.104;2023-11-22T03:00:04;7.80;99.90
8105;DHT22;4095;48.942;9.104;2023-11-22T03:02:30;7.80;99.90
8105;DHT22;4095;48.942;9.104;2023-11-22T03:04:57;7.80;99.90
8105;DHT22;4095;48.942;9.104;2023-11-22T03:07:25;7.80;99.90
8105;DHT22;4095;48.942;9.104;2023-11-22T03:09:50;7.80;99.90
8105;DHT22;4095;48.942;9.104;2023-11-22T03:12:16;7.80;99.90
8105;DHT22;4095;48.942;9.104;2023-11-22T03:14:43;7.80;99.90
8105;DHT22;4095;48.942;9.104;2023-11-22T03:17:09;7.80;99.90
8105;DHT22;4095;48.942;9.104;2023-11-22T03:19:34;7.80;99.90
8105;DHT22;4095;48.942;9.104;2023-11-22T03:22:01;7.70;99.90
8105;DHT22;4095;48.942;9.104;2023-11-22T03:24:28;7.80;99.90
8105;DHT22;4095;48.942;9.104;2023-11-22T03:26:55;7.80;99.90
8105;DHT22;4095;48.942;9.104;2023-11-22T03:29:24;7.80;99.90
8105;DHT22;4095;48.942;9.104;2023-11-22T03:31:50;7.70;99.90
8105;DHT22;4095;48.942;9.104;2023-11-22T03:34:17;7.70;99.90
8105;DHT22;4095;48.942;9.104;2023-11-22T03:36:42;7.70;99.90
8105;DHT22;4095;48.942;9.104;2023-11-22T03:39:08;7.70;99.90
8105;DHT22;4095;48.942;9.104;2023-11-22T03:41:35;7.70;99.90
8105;DHT22;4095;48.942;9.104;2023-11-22T03:44:03;7.70;99.90
8105;DHT22;4095;48.942;9.104;2023-11-22T03:46:29;7.60;99.90
8105;DHT22;4095;48.942;9.104;2023-11-22T03:49:05;7.60;99.90
8105;DHT22;4095;48.942;9.104;2023-11-22T03:51:32;7.60;99.90
8105;DHT22;4095;48.942;9.104;2023-11-22T03:53:58;7.70;99.90
8105;DHT22;4095;48.942;9.104;2023-11-22T03:56:24;7.70;99.90
8105;DHT22;4095;48.942;9.104;2023-11-22T03:58:50;7.60;99.90
8105;DHT22;4095;48.942;9.104;2023-11-22T04:01:16;7.60;99.90
8105;DHT22;4095;48.942;9.104;2023-11-22T04:03:42;7.60;99.90
8105;DHT22;4095;48.942;9.104;2023-11-22T04:06:07;7.50;99.90
8105;DHT22;4095;48.942;9.104;2023-11-22T04:08:33;7.50;99.90
8105;DHT22;4095;48.942;9.104;2023-11-22T04:10:59;7.50;99.90
8105;DHT22;4095;48.942;9.104;2023-11-22T04:13:24;7.50;99.90
8105;DHT22;4095;48.942;9.104;2023-11-22T04:15:50;7.50;99.90
8105;DHT22;4095;48.942;9.104;2023-11-22T04:18:16;7.40;99.90
8105;DHT22;4095;48.942;9.104;2023-11-22T04:20:42;7.50;99.90
8105;DHT22;4095;48.942;9.104;2023-11-22T04:23:07;7.40;99.90
8105;DHT22;4095;48.942;9.104;2023-11-22T04:25:36;7.40;99.90
8105;DHT22;4095;48.942;9.104;2023-11-22T04:28:03;7.40;99.90
8105;DHT22;4095;48.942;9.104;2023-11-22T04:30:29;7.40;99.90
8105;DHT22;4095;48.942;9.104;2023-11-22T04:32:54;7.30;99.90
8105;DHT22;4095;48.942;9.104;2023-11-22T04:35:20;7.40;99.90
8105;DHT22;4095;48.942;9.104;2023-11-22T04:37:45;7.30;99.90
8105;DHT22;4095;48.942;9.104;2023-11-22T04:40:12;7.30;99.90
8105;DHT22;4095;48.942;9.104;2023-11-22T04:42:40;7.30;99.90
8105;DHT22;4095;48.942;9.104;2023-11-22T04:45:06;7.30;99.90
8105;DHT22;4095;48.942;9.104;2023-11-22T04:47:32;7.30;99.90
8105;DHT22;4095;48.942;9.104;2023-11-22T04:49:57;7.30;99.90
8105;DHT22;4095;48.942;9.104;2023-11-22T04:52:23;7.30;99.90
8105;DHT22;4095;48.942;9.104;2023-11-22T04:54:49;7.20;99.90
8105;DHT22;4095;48.942;9.104;2023-11-22T04:57:14;7.20;99.90
8105;DHT22;4095;48.942;9.104;2023-11-22T04:59:40;7.20;99.90
8105;DHT22;4095;48.942;9.104;2023-11-22T05:02:06;7.30;99.90
8105;DHT22;4095;48.942;9.104;2023-11-22T05:04:33;7.20;99.90
8105;DHT22;4095;48.942;9.104;2023-11-22T05:06:58;7.20;99.90
8105;DHT22;4095;48.942;9.104;2023-11-22T05:09:24;7.20;99.90
8105;DHT22;4095;48.942;9.104;2023-11-22T05:11:50;7.20;99.90
8105;DHT22;4095;48.942;9.104;2023-11-22T05:14:17;7.20;99.90
8105;DHT22;4095;48.942;9.104;2023-11-22T05:16:43;7.20;99.90
8105;DHT22;4095;48.942;9.104;2023-11-22T05:19:08;7.20;99.90
8105;DHT22;4095;48.942;9.104;2023-11-22T05:21:37;7.20;99.90
8105;DHT22;4095;48.942;9.104;2023-11-22T05:24:06;7.20;99.90
8105;DHT22;4095;48.942;9.104;2023-11-22T05:26:33;7.20;99.90
8105;DHT22;4095;48.942;9.104;2023-11-22T05:28:58;7.10;99.90
8105;DHT22;4095;48.942;9.104;2023-11-22T05:31:24;7.10;99.90
8105;DHT22;4095;48.942;9.104;2023-11-22T05:33:50;7.10;99.90
8105;DHT22;4095;48.942;9.104;2023-11-22T05:36:15;7.20;99.90
8105;DHT22;4095;48.942;9.104;2023-11-22T05:38:42;7.20;99.90
8105;DHT22;4095;48.942;9.104;2023-11-22T05:41:08;7.20;99.90
8105;DHT22;4095;48.942;9.104;2023-11-22T05:43:34;7.10;99.90
8105;DHT22;4095;48.942;9.104;2023-11-22T05:46:02;7.10;99.90
8105;DHT22;4095;48.942;9.104;2023-11-22T05:48:28;7.10;99.90
8105;DHT22;4095;48.942;9.104;2023-11-22T05:50:54;7.10;99.90
8105;DHT22;4095;48.942;9.104;2023-11-22T05:53:19;7.10;99.90
8105;DHT22;4095;48.942;9.104;2023-11-22T05:55:47;7.10;99.90
8105;DHT22;4095;48.942;9.104;2023-11-22T05:58:16;7.10;99.90
8105;DHT22;4095;48.942;9.104;2023-11-22T06:00:45;7.10;99.90
8105;DHT22;4095;48.942;9.104;2023-11-22T06:03:12;7.20;99.90
8105;DHT22;4095;48.942;9.104;2023-11-22T06:05:39;7.10;99.90
8105;DHT22;4095;48.942;9.104;2023-11-22T06:08:04;7.20;99.90
8105;DHT22;4095;48.942;9.104;2023-11-22T06:10:30;7.20;99.90
8105;DHT22;4095;48.942;9.104;2023-11-22T06:12:56;7.20;99.90
8105;DHT22;4095;48.942;9.104;2023-11-22T06:15:22;7.00;99.90
8105;DHT22;4095;48.942;9.104;2023-11-22T06:17:48;7.10;99.90
8105;DHT22;4095;48.942;9.104;2023-11-22T06:20:16;7.00;99.90
8105;DHT22;4095;48.942;9.104;2023-11-22T06:22:42;7.00;99.90
8105;DHT22;4095;48.942;9.104;2023-11-22T06:25:11;6.90;99.90
8105;DHT22;4095;48.942;9.104;2023-11-22T06:27:38;6.90;99.90
8105;DHT22;4095;48.942;9.104;2023-11-22T06:30:04;6.80;99.90
8105;DHT22;4095;48.942;9.104;2023-11-22T06:32:32;6.80;99.90
8105;DHT22;4095;48.942;9.104;2023-11-22T06:34:57;6.80;99.90
8105;DHT22;4095;48.942;9.104;2023-11-22T06:37:23;6.70;99.90
8105;DHT22;4095;48.942;9.104;2023-11-22T06:39:49;6.70;99.90
8105;DHT22;4095;48.942;9.104;2023-11-22T06:42:16;6.70;99.90
8105;DHT22;4095;48.942;9.104;2023-11-22T06:44:42;6.70;99.90
8105;DHT22;4095;48.942;9.104;2023-11-22T06:47:08;6.70;99.90
8105;DHT22;4095;48.942;9.104;2023-11-22T06:49:33;6.60;99.90
8105;DHT22;4095;48.942;9.104;2023-11-22T06:51:59;6.60;99.90
8105;DHT22;4095;48.942;9.104;2023-11-22T06:54:25;6.60;99.90
8105;DHT22;4095;48.942;9.104;2023-11-22T06:56:51;6.60;99.90
8105;DHT22;4095;48.942;9.104;2023-11-22T06:59:17;6.60;99.90
8105;DHT22;4095;48.942;9.104;2023-11-22T07:01:44;6.50;99.90
8105;DHT22;4095;48.942;9.104;2023-11-22T07:04:09;6.50;99.90
8105;DHT22;4095;48.942;9.104;2023-11-22T07:06:35;6.40;99.90
8105;DHT22;4095;48.942;9.104;2023-11-22T07:09:03;6.40;99.90
8105;DHT22;4095;48.942;9.104;2023-11-22T07:11:29;6.30;99.90
8105;DHT22;4095;48.942;9.104;2023-11-22T07:13:57;6.30;99.90
8105;DHT22;4095;48.942;9.104;2023-11-22T07:16:25;6.40;99.90
8105;DHT22;4095;48.942;9.104;2023-11-22T07:18:51;6.40;99.90
8105;DHT22;4095;48.942;9.104;2023-11-22T07:21:16;6.40;99.90
8105;DHT22;4095;48.942;9.104;2023-11-22T07:23:42;6.30;99.90
8105;DHT22;4095;48.942;9.104;2023-11-22T07:26:10;6.30;99.90
8105;DHT22;4095;48.942;9.104;2023-11-22T07:28:36;6.30;99.90
8105;DHT22;4095;48.942;9.104;2023-11-22T07:31:02;6.30;99.90
8105;DHT22;4095;48.942;9.104;2023-11-22T07:33:31;6.30;99.90
8105;DHT22;4095;48.942;9.104;2023-11-22T07:35:57;6.30;99.90
8105;DHT22;4095;48.942;9.104;2023-11-22T07:38:24;6.20;99.90
8105;DHT22;4095;48.942;9.104;2023-11-22T07:40:50;6.20;99.90
8105;DHT22;4095;48.942;9.104;2023-11-22T07:43:16;6.20;99.90
8105;DHT22;4095;48.942;9.104;2023-11-22T07:45:42;6.20;99.90
8105;DHT22;4095;48.942;9.104;2023-11-22T07:48:10;6.20;99.90
8105;DHT22;4095;48.942;9.104;2023-11-22T07:50:37;6.20;99.90
8105;DHT22;4095;48.942;9.104;2023-11-22T07:53:04;6.10;99.90
8105;DHT22;4095;48.942;9.104;2023-11-22T07:55:30;6.20;99.90
8105;DHT22;4095;48.942;9.104;2023-11-22T07:57:56;6.10;99.90
8105;DHT22;4095;48.942;9.104;2023-11-22T08:00:23;6.10;99.90
8105;DHT22;4095;48.942;9.104;2023-11-22T08:02:49;6.10;99.90
8105;DHT22;4095;48.942;9.104;2023-11-22T08:05:16;6.20;99.90
8105;DHT22;4095;48.942;9.104;2023-11-22T08:07:42;6.30;99.90
8105;DHT22;4095;48.942;9.104;2023-11-22T08:10:10;6.30;99.90
8105;DHT22;4095;48.942;9.104;2023-11-22T08:12:45;6.30;99.90
8105;DHT22;4095;48.942;9.104;2023-11-22T08:15:11;6.30;99.90
8105;DHT22;4095;48.942;9.104;2023-11-22T08:17:40;6.30;99.90
8105;DHT22;4095;48.942;9.104;2023-11-22T08:20:06;6.30;99.90
8105;DHT22;4095;48.942;9.104;2023-11-22T08:22:37;6.20;99.90
8105;DHT22;4095;48.942;9.104;2023-11-22T08:25:05;6.20;99.90
8105;DHT22;4095;48.942;9.104;2023-11-22T08:27:31;6.20;99.90
8105;DHT22;4095;48.942;9.104;2023-11-22T08:29:57;6.20;99.90
8105;DHT22;4095;48.942;9.104;2023-11-22T08:32:23;6.20;99.90
8105;DHT22;4095;48.942;9.104;2023-11-22T08:34:53;6.30;99.90
8105;DHT22;4095;48.942;9.104;2023-11-22T08:37:18;6.30;99.90
8105;DHT22;4095;48.942;9.104;2023-11-22T08:39:44;6.30;99.90
8105;DHT22;4095;48.942;9.104;2023-11-22T08:42:13;6.50;99.90
8105;DHT22;4095;48.942;9.104;2023-11-22T08:44:39;6.50;99.90
8105;DHT22;4095;48.942;9.104;2023-11-22T08:47:05;6.50;99.90
8105;DHT22;4095;48.942;9.104;2023-11-22T08:49:30;6.50;99.90
8105;DHT22;4095;48.942;9.104;2023-11-22T08:51:56;6.50;99.90
8105;DHT22;4095;48.942;9.104;2023-11-22T08:54:25;6.60;99.90
8105;DHT22;4095;48.942;9.104;2023-11-22T08:56:54;6.50;99.90
8105;DHT22;4095;48.942;9.104;2023-11-22T08:59:21;6.60;99.90
8105;DHT22;4095;48.942;9.104;2023-11-22T09:01:47;6.60;99.90
8105;DHT22;4095;48.942;9.104;2023-11-22T09:04:13;6.60;99.90
8105;DHT22;4095;48.942;9.104;2023-11-22T09:06:39;6.60;99.90
8105;DHT22;4095;48.942;9.104;2023-11-22T09:09:04;6.60;99.90
8105;DHT22;4095;48.942;9.104;2023-11-22T09:11:31;6.70;99.90
8105;DHT22;4095;48.942;9.104;2023-11-22T09:14:02;6.70;99.90
8105;DHT22;4095;48.942;9.104;2023-11-22T09:16:39;6.60;99.90
8105;DHT22;4095;48.942;9.104;2023-11-22T09:19:05;6.60;99.90
8105;DHT22;4095;48.942;9.104;2023-11-22T09:21:34;6.70;99.90
8105;DHT22;4095;48.942;9.104;2023-11-22T09:24:00;6.60;99.90
8105;DHT22;4095;48.942;9.104;2023-11-22T09:26:26;6.60;99.90
8105;DHT22;4095;48.942;9.104;2023-11-22T09:28:52;6.70;99.90
8105;DHT22;4095;48.942;9.104;2023-11-22T09:31:19;6.70;99.90
8105;DHT22;4095;48.942;9.104;2023-11-22T09:33:46;6.80;99.90
8105;DHT22;4095;48.942;9.104;2023-11-22T09:36:12;6.80;99.90
8105;DHT22;4095;48.942;9.104;2023-11-22T09:38:38;6.80;99.90
8105;DHT22;4095;48.942;9.104;2023-11-22T09:41:04;6.80;99.90
8105;DHT22;4095;48.942;9.104;2023-11-22T09:43:30;6.80;99.90
8105;DHT22;4095;48.942;9.104;2023-11-22T09:45:56;6.90;99.90
8105;DHT22;4095;48.942;9.104;2023-11-22T09:48:23;6.80;99.90
8105;DHT22;4095;48.942;9.104;2023-11-22T09:51:09;6.90;99.90
8105;DHT22;4095;48.942;9.104;2023-11-22T09:56:09;6.90;99.90
8105;DHT22;4095;48.942;9.104;2023-11-22T09:58:41;7.00;99.90
8105;DHT22;4095;48.942;9.104;2023-11-22T10:01:13;7.00;99.90
8105;DHT22;4095;48.942;9.104;2023-11-22T10:03:40;7.00;99.90
8105;DHT22;4095;48.942;9.104;2023-11-22T10:06:06;7.10;99.90
8105;DHT22;4095;48.942;9.104;2023-11-22T10:08:32;7.10;99.90
8105;DHT22;4095;48.942;9.104;2023-11-22T10:10:59;7.10;99.90
8105;DHT22;4095;48.942;9.104;2023-11-22T10:13:25;7.10;99.90
8105;DHT22;4095;48.942;9.104;2023-11-22T10:15:51;7.10;99.90
8105;DHT22;4095;48.942;9.104;2023-11-22T10:18:18;7.10;99.90
8105;DHT22;4095;48.942;9.104;2023-11-22T10:20:46;7.20;99.90
8105;DHT22;4095;48.942;9.104;2023-11-22T10:23:17;7.20;99.90
8105;DHT22;4095;48.942;9.104;2023-11-22T10:25:50;7.30;99.90
8105;DHT22;4095;48.942;9.104;2023-11-22T10:28:20;7.30;99.90
8105;DHT22;4095;48.942;9.104;2023-11-22T10:30:47;7.40;99.90
8105;DHT22;4095;48.942;9.104;2023-11-22T10:33:14;7.40;99.90
8105;DHT22;4095;48.942;9.104;2023-11-22T10:35:46;7.50;99.90
8105;DHT22;4095;48.942;9.104;2023-11-22T10:38:19;7.50;99.90
8105;DHT22;4095;48.942;9.104;2023-11-22T10:40:45;7.50;99.90
8105;DHT22;4095;48.942;9.104;2023-11-22T10:43:12;7.50;99.90
8105;DHT22;4095;48.942;9.104;2023-11-22T10:45:38;7.50;99.90
8105;DHT22;4095;48.942;9.104;2023-11-22T10:48:05;7.60;99.90
8105;DHT22;4095;48.942;9.104;2023-11-22T10:50:31;7.60;99.90
8105;DHT22;4095;48.942;9.104;2023-11-22T10:52:58;7.70;99.90
8105;DHT22;4095;48.942;9.104;2023-11-22T10:55:31;7.60;99.90
8105;DHT22;4095;48.942;9.104;2023-11-22T10:58:02;7.60;99.90
8105;DHT22;4095;48.942;9.104;2023-11-22T11:00:32;7.50;99.90
8105;DHT22;4095;48.942;9.104;2023-11-22T11:03:07;7.40;99.90
8105;DHT22;4095;48.942;9.104;2023-11-22T11:05:37;7.40;99.90
8105;DHT22;4095;48.942;9.104;2023-11-22T11:08:12;7.40;99.90
8105;DHT22;4095;48.942;9.104;2023-11-22T11:10:47;7.40;99.90
8105;DHT22;4095;48.942;9.104;2023-11-22T11:13:14;7.40;99.90
8105;DHT22;4095;48.942;9.104;2023-11-22T11:15:42;7.40;99.90
8105;DHT22;4095;48.942;9.104;2023-11-22T11:18:15;7.30;99.90
8105;DHT22;4095;48.942;9.104;2023-11-22T11:21:08;7.40;99.90
8105;DHT22;4095;48.942;9.104;2023-11-22T11:23:38;7.40;99.90
8105;DHT22;4095;48.942;9.104;2023-11-22T11:26:16;7.50;99.90
8105;DHT22;4095;48.942;9.104;2023-11-22T11:28:47;7.50;99.90
8105;DHT22;4095;48.942;9.104;2023-11-22T11:31:13;7.50;99.90
8105;DHT22;4095;48.942;9.104;2023-11-22T11:38:48;7.40;99.90
8105;DHT22;4095;48.942;9.104;2023-11-22T11:41:15;7.40;99.90
8105;DHT22;4095;48.942;9.104;2023-11-22T11:43:42;7.50;99.90
8105;DHT22;4095;48.942;9.104;2023-11-22T11:46:08;7.50;99.90
8105;DHT22;4095;48.942;9.104;2023-11-22T11:48:34;7.50;99.90
8105;DHT22;4095;48.942;9.104;2023-11-22T11:51:00;7.50;99.90
8105;DHT22;4095;48.942;9.104;2023-11-22T11:53:27;7.60;99.90
8105;DHT22;4095;48.942;9.104;2023-11-22T11:55:53;7.50;99.90
8105;DHT22;4095;48.942;9.104;2023-11-22T11:58:19;7.50;99.90
8105;DHT22;4095;48.942;9.104;2023-11-22T12:00:45;7.50;99.90
8105;DHT22;4095;48.942;9.104;2023-11-22T12:03:11;7.50;99.90
8105;DHT22;4095;48.942;9.104;2023-11-22T12:05:40;7.50;99.90
8105;DHT22;4095;48.942;9.104;2023-11-22T12:08:05;7.60;99.90
8105;DHT22;4095;48.942;9.104;2023-11-22T12:10:31;7.60;99.90
8105;DHT22;4095;48.942;9.104;2023-11-22T12:12:57;7.60;99.90
8105;DHT22;4095;48.942;9.104;2023-11-22T12:15:24;7.60;99.90
8105;DHT22;4095;48.942;9.104;2023-11-22T12:17:50;7.60;99.90
8105;DHT22;4095;48.942;9.104;2023-11-22T12:20:17;7.60;99.90
8105;DHT22;4095;48.942;9.104;2023-11-22T12:22:47;7.60;99.90
8105;DHT22;4095;48.942;9.104;2023-11-22T12:25:13;7.60;99.90
8105;DHT22;4095;48.942;9.104;2023-11-22T12:27:43;7.60;99.90
8105;DHT22;4095;48.942;9.104;2023-11-22T12:30:30;7.70;99.90
8105;DHT22;4095;48.942;9.104;2023-11-22T12:32:57;7.70;99.90
8105;DHT22;4095;48.942;9.104;2023-11-22T12:35:23;7.70;99.90
8105;DHT22;4095;48.942;9.104;2023-11-22T12:37:49;7.70;99.90
8105;DHT22;4095;48.942;9.104;2023-11-22T12:40:15;7.70;99.90
8105;DHT22;4095;48.942;9.104;2023-11-22T12:42:50;7.70;99.90
8105;DHT22;4095;48.942;9.104;2023-11-22T12:45:34;7.70;99.90
8105;DHT22;4095;48.942;9.104;2023-11-22T12:48:20;7.60;99.90
8105;DHT22;4095;48.942;9.104;2023-11-22T12:50:46;7.40;99.90
8105;DHT22;4095;48.942;9.104;2023-11-22T12:53:13;7.40;99.90
8105;DHT22;4095;48.942;9.104;2023-11-22T12:58:09;7.40;99.90
8105;DHT22;4095;48.942;9.104;2023-11-22T13:00:35;7.40;99.90
8105;DHT22;4095;48.942;9.104;2023-11-22T13:03:01;7.40;99.90
8105;DHT22;4095;48.942;9.104;2023-11-22T13:05:27;7.40;99.90
8105;DHT22;4095;48.942;9.104;2023-11-22T13:07:53;7.40;99.90
8105;DHT22;4095;48.942;9.104;2023-11-22T13:10:19;7.40;99.90
8105;DHT22;4095;48.942;9.104;2023-11-22T13:12:50;7.40;99.90
8105;DHT22;4095;48.942;9.104;2023-11-22T13:15:15;7.40;99.90
8105;DHT22;4095;48.942;9.104;2023-11-22T13:17:41;7.30;99.90
8105;DHT22;4095;48.942;9.104;2023-11-22T13:20:08;7.30;99.90
8105;DHT22;4095;48.942;9.104;2023-11-22T13:22:40;7.30;99.90
8105;DHT22;4095;48.942;9.104;2023-11-22T13:25:10;7.30;99.90
8105;DHT22;4095;48.942;9.104;2023-11-22T13:27:36;7.20;99.90
8105;DHT22;4095;48.942;9.104;2023-11-22T13:30:03;7.20;99.90
8105;DHT22;4095;48.942;9.104;2023-11-22T13:32:30;7.20;99.90
8105;DHT22;4095;48.942;9.104;2023-11-22T13:34:56;7.20;99.90
8105;DHT22;4095;48.942;9.104;2023-11-22T13:37:26;7.20;99.90
8105;DHT22;4095;48.942;9.104;2023-11-22T13:39:52;7.20;99.90
8105;DHT22;4095;48.942;9.104;2023-11-22T13:42:18;7.20;99.90
8105;DHT22;4095;48.942;9.104;2023-11-22T13:44:44;7.30;99.90
8105;DHT22;4095;48.942;9.104;2023-11-22T13:47:10;7.20;99.90
8105;DHT22;4095;48.942;9.104;2023-11-22T13:49:36;7.20;99.90
8105;DHT22;4095;48.942;9.104;2023-11-22T13:52:03;7.20;99.90
8105;DHT22;4095;48.942;9.104;2023-11-22T13:54:28;7.30;99.90
8105;DHT22;4095;48.942;9.104;2023-11-22T13:56:54;7.30;99.90
8105;DHT22;4095;48.942;9.104;2023-11-22T13:59:20;7.30;99.90
8105;DHT22;4095;48.942;9.104;2023-11-22T14:01:45;7.30;99.90
8105;DHT22;4095;48.942;9.104;2023-11-22T14:04:11;7.30;99.90
8105;DHT22;4095;48.942;9.104;2023-11-22T14:06:37;7.30;99.90
8105;DHT22;4095;48.942;9.104;2023-11-22T14:09:03;7.30;99.90
8105;DHT22;4095;48.942;9.104;2023-11-22T14:11:29;7.30;99.90
8105;DHT22;4095;48.942;9.104;2023-11-22T14:13:55;7.30;99.90
8105;DHT22;4095;48.942;9.104;2023-11-22T14:16:21;7.30;99.90
8105;DHT22;4095;48.942;9.104;2023-11-22T14:18:47;7.20;99.90
8105;DHT22;4095;48.942;9.104;2023-11-22T14:21:12;7.20;99.90
8105;DHT22;4095;48.942;9.104;2023-11-22T14:23:38;7.20;99.90
8105;DHT22;4095;48.942;9.104;2023-11-22T14:26:04;7.20;99.90
8105;DHT22;4095;48.942;9.104;2023-11-22T14:28:30;7.10;99.90
8105;DHT22;4095;48.942;9.104;2023-11-22T14:30:56;7.10;99.90
8105;DHT22;4095;48.942;9.104;2023-11-22T14:33:22;7.10;99.90
8105;DHT22;4095;48.942;9.104;2023-11-22T14:35:47;7.10;99.90
8105;DHT22;4095;48.942;9.104;2023-11-22T14:38:13;7.20;99.90
8105;DHT22;4095;48.942;9.104;2023-11-22T14:40:39;7.20;99.90
8105;DHT22;4095;48.942;9.104;2023-11-22T14:43:06;7.20;99.90
8105;DHT22;4095;48.942;9.104;2023-11-22T14:45:32;7.10;99.90
8105;DHT22;4095;48.942;9.104;2023-11-22T14:47:58;7.20;99.90
8105;DHT22;4095;48.942;9.104;2023-11-22T14:50:24;7.10;99.90
8105;DHT22;4095;48.942;9.104;2023-11-22T14:52:54;7.10;99.90
8105;DHT22;4095;48.942;9.104;2023-11-22T14:55:20;7.10;99.90
8105;DHT22;4095;48.942;9.104;2023-11-22T14:57:48;7.00;99.90
8105;DHT22;4095;48.942;9.104;2023-11-22T15:00:16;7.00;99.90
8105;DHT22;4095;48.942;9.104;2023-11-22T15:02:42;7.00;99.90
8105;DHT22;4095;48.942;9.104;2023-11-22T15:05:14;7.00;99.90
8105;DHT22;4095;48.942;9.104;2023-11-22T15:07:39;7.00;99.90
8105;DHT22;4095;48.942;9.104;2023-11-22T15:10:07;7.00;99.90
8105;DHT22;4095;48.942;9.104;2023-11-22T15:12:33;6.90;99.90
8105;DHT22;4095;48.942;9.104;2023-11-22T15:15:00;6.90;99.90
8105;DHT22;4095;48.942;9.104;2023-11-22T15:17:26;6.90;99.90
8105;DHT22;4095;48.942;9.104;2023-11-22T15:19:51;6.90;99.90
8105;DHT22;4095;48.942;9.104;2023-11-22T15:22:17;6.80;99.90
8105;DHT22;4095;48.942;9.104;2023-11-22T15:24:42;6.90;99.90
8105;DHT22;4095;48.942;9.104;2023-11-22T15:27:09;6.80;99.90
8105;DHT22;4095;48.942;9.104;2023-11-22T15:29:34;6.80;99.90
8105;DHT22;4095;48.942;9.104;2023-11-22T15:32:01;6.80;99.90
8105;DHT22;4095;48.942;9.104;2023-11-22T15:34:28;6.80;99.90
8105;DHT22;4095;48.942;9.104;2023-11-22T15:36:53;6.80;99.90
8105;DHT22;4095;48.942;9.104;2023-11-22T15:39:19;6.70;99.90
8105;DHT22;4095;48.942;9.104;2023-11-22T15:41:47;6.70;99.90
8105;DHT22;4095;48.942;9.104;2023-11-22T15:44:14;6.70;99.90
8105;DHT22;4095;48.942;9.104;2023-11-22T15:46:41;6.70;99.90
8105;DHT22;4095;48.942;9.104;2023-11-22T15:49:07;6.60;99.90
8105;DHT22;4095;48.942;9.104;2023-11-22T15:51:34;6.70;99.90
8105;DHT22;4095;48.942;9.104;2023-11-22T15:53:59;6.70;99.90
8105;DHT22;4095;48.942;9.104;2023-11-22T15:56:25;6.70;99.90
8105;DHT22;4095;48.942;9.104;2023-11-22T15:58:52;6.70;99.90
8105;DHT22;4095;48.942;9.104;2023-11-22T16:01:19;6.70;99.90
8105;DHT22;4095;48.942;9.104;2023-11-22T16:03:44;6.70;99.90
8105;DHT22;4095;48.942;9.104;2023-11-22T16:06:10;6.70;99.90
8105;DHT22;4095;48.942;9.104;2023-11-22T16:08:36;6.60;99.90
8105;DHT22;4095;48.942;9.104;2023-11-22T16:11:02;6.60;99.90
8105;DHT22;4095;48.942;9.104;2023-11-22T16:13:27;6.60;99.90
8105;DHT22;4095;48.942;9.104;2023-11-22T16:15:53;6.60;99.90
8105;DHT22;4095;48.942;9.104;2023-11-22T16:18:20;6.60;99.90
8105;DHT22;4095;48.942;9.104;2023-11-22T16:20:55;6.60;99.90
8105;DHT22;4095;48.942;9.104;2023-11-22T16:23:21;6.60;99.90
8105;DHT22;4095;48.942;9.104;2023-11-22T16:25:46;6.60;99.90